Terminal Aerodrome Forecast
Issued by NWS Shreveport, LA

Home | Current Version | Previous Version | Text Only | Print | Product List | Glossary On
Versions: 1 2 3 4 5 6 7 8 9 10 11 12 13 14
000
FTUS44 KSHV 301100
TAFELD
TAF
KELD 301133Z 3012/3112 VRB03KT P6SM BKN150 BKN250
     FM301500 13005KT P6SM BKN120 BKN250
     FM301700 11005KT P6SM FEW040 BKN120 BKN250
     FM310100 09003KT P6SM OVC120
     FM310600 08003KT P6SM OVC080=

USA.gov is the U.S. government's official web portal to all federal, state and local government web resources and services.